Time;durP1;ratioP1;P1;durP2;ratioP2;P2;SDS_P1;SDS_P2;PMS_P1;PMS_P2;Temp;Humidity;BMP_temperature;BMP_pressure;BME280_temperature;BME280_humidity;BME280_pressure;Samples;Min_cycle;Max_cycle;Signal;HPM_P1;HPM_P2
2021/01/31 00:00:18;;;;;;;14.97;9.30;;;;;;;-5.19;100.00;99107.97;3339335;87;26348;-73
2021/01/31 00:05:23;;;;;;;18.13;9.57;;;;;;;-5.34;100.00;99118.73;3318587;87;34134;-73
2021/01/31 00:10:29;;;;;;;17.93;10.13;;;;;;;-5.52;100.00;99123.42;3340119;87;27352;-73
2021/01/31 00:15:35;;;;;;;16.83;9.67;;;;;;;-5.38;100.00;99132.59;3266069;88;35620;-66
2021/01/31 00:20:38;;;;;;;16.53;9.53;;;;;;;-5.51;100.00;99132.10;3317250;88;34752;-72
2021/01/31 00:25:39;;;;;;;17.80;10.20;;;;;;;-5.62;100.00;99143.29;3317473;88;33066;-73
2021/01/31 00:30:44;;;;;;;15.67;8.00;;;;;;;-5.64;100.00;99145.00;3318182;89;25798;-71
2021/01/31 00:35:46;;;;;;;20.00;11.35;;;;;;;-5.87;100.00;99147.91;3318208;88;26279;-72
2021/01/31 00:40:49;;;;;;;17.87;9.73;;;;;;;-5.50;100.00;99160.67;3317898;88;34860;-66
2021/01/31 00:45:53;;;;;;;19.37;11.63;;;;;;;-5.43;100.00;99164.18;3317928;88;33096;-72
2021/01/31 00:50:54;;;;;;;23.57;13.13;;;;;;;-5.52;100.00;99168.02;3268324;90;32949;-67
2021/01/31 00:55:55;;;;;;;29.67;14.03;;;;;;;-5.57;100.00;99165.39;3265959;90;32965;-65
2021/01/31 01:00:56;;;;;;;23.53;13.40;;;;;;;-5.45;100.00;99174.98;3319730;89;25820;-71
2021/01/31 01:05:58;;;;;;;19.70;12.27;;;;;;;-5.56;100.00;99180.53;3318592;88;25869;-72
2021/01/31 01:11:00;;;;;;;17.77;11.40;;;;;;;-5.53;100.00;99183.16;3317674;89;25897;-71
2021/01/31 01:16:01;;;;;;;18.47;11.90;;;;;;;-5.44;100.00;99193.61;3340193;88;35454;-71
2021/01/31 01:21:02;;;;;;;17.53;10.90;;;;;;;-5.33;100.00;99191.06;3339972;87;25955;-72
2021/01/31 01:26:03;;;;;;;17.73;11.03;;;;;;;-5.30;100.00;99194.55;3339847;88;25886;-72
2021/01/31 01:31:04;;;;;;;14.67;9.40;;;;;;;-5.39;100.00;99197.09;3339877;88;25864;-72
2021/01/31 01:36:06;;;;;;;17.30;10.40;;;;;;;-5.24;100.00;99192.83;3340236;87;25862;-72
2021/01/31 01:41:07;;;;;;;14.27;8.43;;;;;;;-5.22;100.00;99191.12;3340061;87;25850;-72
2021/01/31 01:46:23;;;;;;;18.35;9.95;;;;;;;-5.29;100.00;99195.41;3339737;87;25877;-71
2021/01/31 01:51:46;;;;;;;19.53;10.13;;;;;;;-5.23;100.00;99197.17;3340129;88;34824;-71
2021/01/31 01:56:54;;;;;;;16.03;9.23;;;;;;;-5.15;100.00;99200.68;3340019;88;35929;-72
2021/01/31 02:02:19;;;;;;;10.67;7.00;;;;;;;-5.28;100.00;99200.59;3340079;88;33861;-73
2021/01/31 02:07:20;;;;;;;11.45;6.83;;;;;;;-5.12;100.00;99205.45;3339428;88;25949;-71
2021/01/31 02:12:26;;;;;;;13.13;7.60;;;;;;;-5.04;100.00;99209.37;3339869;87;35452;-67
2021/01/31 02:18:01;;;;;;;13.40;8.73;;;;;;;-5.02;100.00;99217.17;3339922;87;26591;-73
2021/01/31 02:23:39;;;;;;;17.70;8.70;;;;;;;-5.12;100.00;99214.97;3339813;88;34112;-72
2021/01/31 02:28:49;;;;;;;14.67;8.53;;;;;;;-5.07;100.00;99206.75;3339958;88;34883;-73
2021/01/31 02:34:02;;;;;;;14.00;8.07;;;;;;;-5.05;100.00;99210.68;3339889;88;33015;-71
2021/01/31 02:39:30;;;;;;;16.10;7.63;;;;;;;-5.10;100.00;99209.36;3340042;88;33020;-66
2021/01/31 02:44:36;;;;;;;13.47;8.07;;;;;;;-5.07;100.00;99216.30;3339859;88;33835;-72
2021/01/31 02:49:43;;;;;;;13.50;7.83;;;;;;;-5.04;100.00;99220.22;3340286;88;34959;-73
2021/01/31 02:54:55;;;;;;;9.57;5.70;;;;;;;-5.15;100.00;99217.57;3339868;88;34501;-72
2021/01/31 03:00:17;;;;;;;11.30;6.30;;;;;;;-5.37;100.00;99215.27;3339463;88;34019;-71
2021/01/31 03:05:22;;;;;;;7.67;6.53;;;;;;;-5.39;100.00;99222.21;3339925;88;34791;-71
2021/01/31 03:10:38;;;;;;;10.68;7.20;;;;;;;-5.60;100.00;99223.78;3287288;90;27291;-67
2021/01/31 03:15:53;;;;;;;11.95;6.47;;;;;;;-5.57;100.00;99225.56;3314617;88;25872;-70
2021/01/31 03:20:57;;;;;;;;;;;;;;;-5.69;100.00;99227.20;3309710;89;25766;-72
2021/01/31 03:26:07;;;;;;;11.07;5.50;;;;;;;-5.79;100.00;99228.01;3306987;89;34915;-67
2021/01/31 03:31:11;;;;;;;14.00;6.83;;;;;;;-6.07;100.00;99239.50;3306978;89;34095;-71
2021/01/31 03:36:12;;;;;;;12.03;7.10;;;;;;;-6.12;100.00;99246.34;3307365;89;33103;-72
2021/01/31 03:41:18;;;;;;;14.73;7.50;;;;;;;-6.21;100.00;99248.88;3307660;88;34860;-66
2021/01/31 03:46:46;;;;;;;10.67;5.17;;;;;;;-6.22;100.00;99249.73;3307357;89;35315;-72
2021/01/31 03:51:47;;;;;;;12.67;6.73;;;;;;;-6.49;100.00;99252.50;3307558;89;33802;-72
2021/01/31 03:56:59;;;;;;;12.63;7.37;;;;;;;-6.53;100.00;99258.08;3307572;89;25770;-72
2021/01/31 04:02:02;;;;;;;11.73;7.30;;;;;;;-6.46;100.00;99264.18;3308405;89;33969;-72
2021/01/31 04:07:06;;;;;;;11.77;6.33;;;;;;;-6.55;100.00;99262.80;3292919;89;34588;-70
2021/01/31 04:12:12;;;;;;;11.30;7.37;;;;;;;-6.58;100.00;99260.61;3307713;88;34083;-71
2021/01/31 04:17:15;;;;;;;12.23;8.00;;;;;;;-6.49;100.00;99275.83;3307555;89;35004;-70
2021/01/31 04:22:16;;;;;;;11.77;6.93;;;;;;;-6.67;100.00;99279.94;3307978;88;32957;-71
2021/01/31 04:27:17;;;;;;;13.47;6.80;;;;;;;-6.79;100.00;99284.98;3307570;89;25819;-73
2021/01/31 04:32:18;;;;;;;10.97;6.30;;;;;;;-7.09;100.00;99291.50;3307360;88;26098;-66
2021/01/31 04:37:24;;;;;;;12.50;6.63;;;;;;;-7.08;100.00;99301.02;3307527;88;25917;-72
2021/01/31 04:42:23;;;;;;;11.33;7.70;;;;;;;-7.01;100.00;99296.81;3306292;89;33018;-73
2021/01/31 04:47:33;;;;;;;12.70;7.67;;;;;;;-6.99;100.00;99293.38;3307833;89;33637;-71
2021/01/31 04:53:08;;;;;;;14.23;7.27;;;;;;;-6.90;99.72;99304.28;3307436;89;35048;-72
2021/01/31 04:58:22;;;;;;;13.13;7.77;;;;;;;-6.90;99.57;99310.77;3307335;88;33986;-72
2021/01/31 05:03:25;;;;;;;12.73;8.30;;;;;;;-6.68;99.62;99305.41;3307455;89;32547;-71
2021/01/31 05:08:29;;;;;;;14.50;6.83;;;;;;;-6.68;100.00;99312.34;3310482;88;33123;-72
2021/01/31 05:13:45;;;;;;;13.43;7.20;;;;;;;-6.64;99.59;99318.88;3316876;87;25887;-72
2021/01/31 05:18:57;;;;;;;14.10;8.23;;;;;;;-6.64;99.44;99329.25;3339765;88;34217;-73
2021/01/31 05:24:07;;;;;;;16.33;7.70;;;;;;;-6.43;99.26;99323.88;3339179;88;35345;-71
2021/01/31 05:29:16;;;;;;;14.47;7.50;;;;;;;-6.37;98.57;99327.83;3335539;88;34057;-71
2021/01/31 05:34:41;;;;;;;16.03;7.77;;;;;;;-6.35;98.82;99331.31;3339855;88;33070;-71
2021/01/31 05:40:05;;;;;;;12.35;7.70;;;;;;;-6.25;98.42;99335.73;3339675;87;25990;-71
2021/01/31 05:45:12;;;;;;;12.43;7.30;;;;;;;-6.15;97.59;99333.25;3340204;88;25921;-71
2021/01/31 05:50:37;;;;;;;14.73;7.97;;;;;;;-6.01;96.66;99342.46;3340398;88;34753;-71
2021/01/31 05:55:38;;;;;;;12.60;7.13;;;;;;;-5.99;96.77;99345.51;3340661;88;33155;-72
2021/01/31 06:00:39;;;;;;;11.50;7.47;;;;;;;-6.00;97.00;99347.69;3340376;88;25838;-71
2021/01/31 06:05:42;;;;;;;15.60;7.83;;;;;;;-6.03;98.29;99354.13;3344384;88;25411;-72
2021/01/31 06:10:48;;;;;;;14.93;8.73;;;;;;;-6.02;98.20;99357.17;3343695;88;34847;-72
2021/01/31 06:15:57;;;;;;;18.27;10.03;;;;;;;-5.96;98.43;99354.60;3316459;87;33116;-73
2021/01/31 06:21:17;;;;;;;13.23;7.73;;;;;;;-5.84;98.29;99358.16;3307216;89;35693;-72
2021/01/31 06:26:31;;;;;;;13.60;8.27;;;;;;;-5.85;97.62;99359.05;3307067;89;35458;-71
2021/01/31 06:31:56;;;;;;;9.90;6.97;;;;;;;-5.80;98.24;99371.64;3307575;89;35124;-72
2021/01/31 06:37:17;;;;;;;12.55;7.40;;;;;;;-5.63;97.22;99376.98;3289929;89;25886;-72
2021/01/31 06:42:52;;;;;;;15.20;7.80;;;;;;;-5.63;96.82;99384.77;3346099;88;34019;-71
2021/01/31 06:48:28;;;;;;;13.18;6.87;;;;;;;-5.49;96.26;99390.08;3320130;87;26290;-72
2021/01/31 06:54:21;;;;;;;13.17;7.17;;;;;;;-5.55;96.49;99380.94;3309530;89;32149;-66
2021/01/31 06:59:52;;;;;;;14.37;8.00;;;;;;;-5.85;97.49;99366.84;3363154;87;26042;-71
2021/01/31 07:05:29;;;;;;;14.60;7.37;;;;;;;-5.78;97.36;99375.13;3292464;89;34988;-67
2021/01/31 07:10:38;;;;;;;16.23;8.03;;;;;;;-5.82;96.98;99383.31;3363292;88;34093;-71
2021/01/31 07:16:17;;;;;;;10.97;7.40;;;;;;;-5.77;96.69;99392.41;3312225;89;33940;-72
2021/01/31 07:21:23;;;;;;;9.47;6.10;;;;;;;-5.80;96.00;99403.64;3373587;87;34867;-71
2021/01/31 07:26:56;;;;;;;14.63;8.00;;;;;;;-5.69;94.83;99402.89;3317439;89;35137;-71
2021/01/31 07:32:00;;;;;;;14.87;6.87;;;;;;;-5.62;94.28;99413.34;3373907;88;34141;-68
2021/01/31 07:37:16;;;;;;;12.87;7.70;;;;;;;-5.52;93.12;99412.14;3317316;89;34608;-72
2021/01/31 07:42:18;;;;;;;;;;;;;;;-5.51;92.75;99417.78;3374716;87;26321;-73
2021/01/31 07:47:23;;;;;;;15.57;8.70;;;;;;;-5.51;92.29;99423.84;3317556;88;34873;-67
2021/01/31 07:52:28;;;;;;;14.03;8.20;;;;;;;-5.45;92.19;99422.59;3317363;88;29742;-72
2021/01/31 07:57:37;;;;;;;18.03;10.00;;;;;;;-5.40;91.74;99429.13;3361917;88;33138;-72
2021/01/31 08:02:43;;;;;;;17.90;9.17;;;;;;;-5.37;91.57;99434.78;3370169;87;35326;-67
2021/01/31 08:08:06;;;;;;;15.47;9.23;;;;;;;-5.37;90.72;99436.97;3373968;87;34850;-72
2021/01/31 08:13:19;;;;;;;16.87;9.07;;;;;;;-5.25;90.44;99435.33;3332989;88;34879;-72
2021/01/31 08:18:20;;;;;;;14.57;8.97;;;;;;;-5.21;89.77;99443.58;3340123;87;32185;-72
2021/01/31 08:23:33;;;;;;;14.40;7.93;;;;;;;-5.18;89.19;99450.97;3338286;87;34127;-72
2021/01/31 08:28:36;;;;;;;13.73;8.67;;;;;;;-5.03;88.67;99461.94;3339258;87;33044;-71
2021/01/31 08:33:40;;;;;;;17.23;9.07;;;;;;;-4.94;88.22;99462.44;3373245;87;33279;-72
2021/01/31 08:38:54;;;;;;;17.27;9.23;;;;;;;-4.88;87.69;99469.42;3338596;87;33621;-72
2021/01/31 08:44:13;;;;;;;13.57;9.17;;;;;;;-4.83;86.89;99476.38;3339951;87;34848;-72
2021/01/31 08:49:15;;;;;;;17.43;8.67;;;;;;;-4.71;85.66;99474.30;3393563;87;34886;-73
2021/01/31 08:54:20;;;;;;;15.90;10.03;;;;;;;-4.57;85.27;99483.52;3364316;87;34848;-68
2021/01/31 08:59:38;;;;;;;13.65;8.25;;;;;;;-4.50;85.15;99488.31;3303429;88;25853;-72
2021/01/31 09:04:46;;;;;;;13.63;8.70;;;;;;;-4.43;83.91;99495.30;3301489;88;32134;-73
2021/01/31 09:09:56;;;;;;;18.37;8.17;;;;;;;-4.37;84.11;99502.28;3303512;88;33373;-73
2021/01/31 09:15:20;;;;;;;13.67;8.50;;;;;;;-4.42;83.29;99502.25;3297213;88;34332;-73
2021/01/31 09:20:27;;;;;;;12.23;7.63;;;;;;;-4.26;83.11;99498.44;3257676;89;34909;-67
2021/01/31 09:25:33;;;;;;;11.20;6.63;;;;;;;-4.24;82.13;99512.34;3255530;89;35101;-74
2021/01/31 09:30:34;;;;;;;;;;;;;;;-4.32;82.50;99513.58;3289370;88;25916;-72
2021/01/31 09:35:38;;;;;;;7.33;4.43;;;;;;;-4.21;82.20;99509.74;3305288;88;34989;-73
2021/01/31 09:40:41;;;;;;;9.37;5.83;;;;;;;-4.35;82.16;99525.28;3309882;88;34582;-73
2021/01/31 09:45:47;;;;;;;13.10;8.27;;;;;;;-4.27;83.35;99531.42;3307192;88;35004;-72
2021/01/31 09:50:57;;;;;;;13.67;7.53;;;;;;;-4.44;83.50;99526.08;3307438;88;33074;-71
2021/01/31 09:56:00;;;;;;;13.43;8.47;;;;;;;-4.56;83.50;99528.18;3309321;88;34350;-73
2021/01/31 10:01:27;;;;;;;13.30;8.47;;;;;;;-4.27;82.47;99531.83;3307691;88;35529;-72
2021/01/31 10:06:33;;;;;;;10.07;5.87;;;;;;;-4.46;82.99;99538.22;3251513;89;34359;-72
2021/01/31 10:11:44;;;;;;;13.73;8.57;;;;;;;-4.44;81.78;99541.69;3305819;88;34874;-73
2021/01/31 10:16:46;;;;;;;10.23;5.67;;;;;;;-4.30;81.81;99547.00;3329224;87;34408;-68
2021/01/31 10:21:57;;;;;;;9.67;5.90;;;;;;;-4.04;80.86;99544.98;3339730;87;25842;-73
2021/01/31 10:27:12;;;;;;;13.43;10.10;;;;;;;-4.17;80.21;99553.16;3337272;87;33875;-74
2021/01/31 10:32:37;;;;;;;11.43;6.67;;;;;;;-4.04;80.52;99557.58;3336972;87;35342;-67
2021/01/31 10:37:38;;;;;;;;;;;;;;;-4.16;79.19;99560.97;3342921;87;25821;-73
2021/01/31 10:42:39;;;;;;;17.27;11.17;;;;;;;-3.92;79.15;99559.39;3338738;87;26380;-73
2021/01/31 10:47:45;;;;;;;12.85;7.67;;;;;;;-3.88;79.07;99558.98;3361888;85;35192;-73
2021/01/31 10:52:47;;;;;;;;;;;;;;;-3.86;77.90;99559.83;3320117;88;26316;-68
2021/01/31 10:57:48;;;;;;;15.37;9.37;;;;;;;-3.59;77.35;99558.21;3303795;88;35965;-72
2021/01/31 11:02:49;;;;;;;13.23;8.43;;;;;;;-3.27;77.25;99558.77;3417698;86;25932;-75
2021/01/31 11:07:50;;;;;;;13.80;9.13;;;;;;;-3.36;75.81;99553.97;3416869;86;25868;-73
2021/01/31 11:12:52;;;;;;;9.63;6.60;;;;;;;-2.88;75.09;99567.53;3421179;86;25498;-70
2021/01/31 11:17:58;;;;;;;15.40;10.43;;;;;;;-3.23;74.71;99552.69;3425309;86;26024;-72
2021/01/31 11:22:59;;;;;;;10.03;7.57;;;;;;;-2.65;73.53;99556.25;3423353;83;34792;-72
2021/01/31 11:28:00;;;;;;;11.37;8.07;;;;;;;-2.24;71.02;99550.14;3422731;86;26326;-72
2021/01/31 11:33:02;;;;;;;15.67;10.70;;;;;;;1.02;61.51;99557.66;3415871;86;27291;-67
2021/01/31 11:38:04;;;;;;;13.60;10.23;;;;;;;3.31;51.47;99541.02;3417765;86;31263;-73
2021/01/31 11:43:05;;;;;;;15.13;11.97;;;;;;;4.34;45.99;99538.39;3417841;86;35576;-73
2021/01/31 11:48:07;;;;;;;13.57;11.53;;;;;;;6.07;41.75;99534.30;3418433;86;35842;-73
2021/01/31 11:53:08;;;;;;;12.13;10.53;;;;;;;4.52;44.78;99522.02;3418649;86;26447;-73
2021/01/31 11:58:11;;;;;;;11.33;10.03;;;;;;;5.40;42.61;99529.05;3416049;85;35417;-74
2021/01/31 12:03:12;;;;;;;13.50;12.20;;;;;;;5.02;41.54;99524.51;3419760;86;26096;-73
2021/01/31 12:08:14;;;;;;;11.50;10.20;;;;;;;4.49;43.26;99528.73;3416225;86;34919;-74
2021/01/31 12:13:15;;;;;;;11.00;9.90;;;;;;;3.10;45.08;99523.11;3416653;86;34896;-69
2021/01/31 12:18:16;;;;;;;14.35;12.85;;;;;;;1.45;50.61;99533.80;3408914;85;34918;-72
2021/01/31 12:23:18;;;;;;;13.53;11.30;;;;;;;2.11;50.02;99534.40;3376204;85;34974;-72
2021/01/31 12:28:20;;;;;;;10.33;9.33;;;;;;;3.56;45.58;99527.72;3377415;84;34864;-72
2021/01/31 12:33:21;;;;;;;12.97;11.50;;;;;;;3.65;44.93;99526.14;3418844;86;25935;-73
2021/01/31 12:38:28;;;;;;;11.70;10.50;;;;;;;4.41;42.84;99518.84;3419319;86;34939;-71
2021/01/31 12:43:29;;;;;;;12.67;11.00;;;;;;;2.33;47.75;99517.73;3422629;86;34847;-74
2021/01/31 12:48:30;;;;;;;10.77;9.07;;;;;;;0.25;53.86;99503.98;3423046;86;34950;-73
2021/01/31 12:53:31;;;;;;;10.98;9.80;;;;;;;0.25;53.86;99503.98;3425089;86;34559;-73
2021/01/31 12:58:32;;;;;;;11.93;9.53;;;;;;;-1.17;57.56;99503.56;3380812;87;29220;-71
2021/01/31 13:03:34;;;;;;;11.77;10.10;;;;;;;-1.16;58.48;99494.84;3422801;86;27265;-73
2021/01/31 13:08:35;;;;;;;13.93;10.90;;;;;;;-0.39;56.91;99488.08;3421119;86;25799;-73
2021/01/31 13:13:40;;;;;;;15.13;11.87;;;;;;;0.06;55.77;99498.12;3421172;86;25837;-73
2021/01/31 13:18:44;;;;;;;;;;;;;;;1.61;51.82;99495.88;3412057;86;25857;-73
2021/01/31 13:23:45;;;;;;;12.43;10.43;;;;;;;1.63;51.00;99499.78;3410567;86;30233;-75
2021/01/31 13:28:46;;;;;;;11.40;9.90;;;;;;;2.71;46.95;99502.45;3412078;86;34821;-74
2021/01/31 13:33:47;;;;;;;11.97;10.33;;;;;;;1.71;49.55;99509.25;3407204;86;33465;-73
2021/01/31 13:38:51;;;;;;;14.70;12.83;;;;;;;1.32;51.71;99506.86;3411132;86;34958;-73
2021/01/31 13:43:52;;;;;;;12.33;11.13;;;;;;;1.16;51.64;99503.63;3405328;86;34941;-71
2021/01/31 13:48:53;;;;;;;10.83;9.43;;;;;;;1.37;51.56;99511.16;3409102;86;34688;-72
2021/01/31 13:53:55;;;;;;;13.10;11.70;;;;;;;1.40;50.47;99513.74;3408352;86;33518;-73
2021/01/31 13:58:56;;;;;;;14.43;12.90;;;;;;;-0.04;54.27;99517.44;3412682;86;29132;-72
2021/01/31 14:03:57;;;;;;;15.17;12.17;;;;;;;-0.47;57.35;99519.16;3406969;86;29069;-59
2021/01/31 14:08:58;;;;;;;14.37;12.13;;;;;;;0.17;54.31;99520.70;3407426;86;25829;-71
2021/01/31 14:13:59;;;;;;;16.10;12.67;;;;;;;-0.13;55.62;99524.07;3345891;84;40416;-67
2021/01/31 14:19:02;;;;;;;12.57;10.80;;;;;;;0.02;54.74;99514.74;3230331;90;147540;-72
2021/01/31 14:24:05;;;;;;;16.60;13.27;;;;;;;-0.56;55.72;99518.35;3256494;90;32596;-68
2021/01/31 14:29:06;;;;;;;16.57;12.43;;;;;;;-0.77;56.79;99515.91;3228756;91;35316;-71
2021/01/31 14:34:07;;;;;;;17.90;13.43;;;;;;;-1.29;58.99;99520.64;3269010;90;28893;-68
2021/01/31 14:39:08;;;;;;;16.77;12.90;;;;;;;-1.12;58.76;99510.07;3264538;90;31644;-71
2021/01/31 14:44:09;;;;;;;19.80;14.30;;;;;;;-1.55;60.26;99512.92;3265350;89;29655;-71
2021/01/31 14:49:11;;;;;;;18.80;13.23;;;;;;;-1.95;61.51;99503.50;3268588;90;29274;-72
2021/01/31 14:54:13;;;;;;;18.70;14.20;;;;;;;-1.93;61.51;99507.84;3263190;87;739576;-68
2021/01/31 14:59:16;;;;;;;26.83;16.27;;;;;;;-2.37;63.68;99508.84;3331835;87;35459;-72
2021/01/31 15:04:21;;;;;;;19.93;13.60;;;;;;;-2.61;64.11;99509.73;3330159;87;34945;-71
2021/01/31 15:09:22;;;;;;;18.62;13.55;;;;;;;-2.89;65.39;99509.74;3330177;87;28050;-73
2021/01/31 15:14:23;;;;;;;16.63;13.27;;;;;;;-3.07;66.73;99504.93;3295909;88;26384;-72
2021/01/31 15:19:24;;;;;;;18.93;12.93;;;;;;;-3.20;66.71;99506.64;3310935;87;25900;-72
2021/01/31 15:24:25;;;;;;;23.37;15.57;;;;;;;-3.46;68.32;99504.00;3231500;86;29708;-71
2021/01/31 15:29:26;;;;;;;22.30;15.90;;;;;;;-3.40;69.08;99500.52;3215277;90;25861;-72
2021/01/31 15:34:27;;;;;;;21.73;15.00;;;;;;;-3.54;69.96;99509.62;3209885;91;25859;-72
2021/01/31 15:39:28;;;;;;;26.57;15.57;;;;;;;-3.54;69.96;99509.62;3209768;91;25977;-73
2021/01/31 15:44:30;;;;;;;21.43;14.53;;;;;;;-3.73;70.63;99505.63;3215524;90;26735;-73
2021/01/31 15:49:31;;;;;;;25.03;16.33;;;;;;;-3.86;71.44;99509.94;3210433;91;25860;-73
2021/01/31 15:54:34;;;;;;;26.47;16.57;;;;;;;-3.86;71.70;99507.34;3215851;90;25913;-73
2021/01/31 15:59:35;;;;;;;24.37;15.93;;;;;;;-3.96;71.73;99501.62;3210369;92;26225;-73
2021/01/31 16:04:37;;;;;;;25.93;16.63;;;;;;;-3.90;71.11;99512.52;3208242;90;25784;-72
2021/01/31 16:09:38;;;;;;;26.73;16.53;;;;;;;-4.10;72.77;99521.52;3210192;91;25982;-74
2021/01/31 16:14:39;;;;;;;22.27;15.60;;;;;;;-4.12;72.56;99522.82;3209084;92;25879;-73
2021/01/31 16:19:40;;;;;;;23.37;15.77;;;;;;;-4.24;72.84;99521.01;3213045;89;26344;-68
2021/01/31 16:24:45;;;;;;;24.77;15.97;;;;;;;-4.34;73.03;99518.78;3215981;92;25782;-71
2021/01/31 16:29:46;;;;;;;21.93;15.30;;;;;;;-4.45;73.88;99513.95;3224601;91;34846;-73
2021/01/31 16:34:47;;;;;;;21.27;15.67;;;;;;;-4.46;74.29;99510.91;3213828;92;25800;-72
2021/01/31 16:39:49;;;;;;;26.03;16.53;;;;;;;-4.61;74.91;99509.49;3224191;90;25734;-67
2021/01/31 16:44:50;;;;;;;22.20;14.27;;;;;;;-4.76;75.54;99508.52;3215843;90;26342;-74
2021/01/31 16:49:51;;;;;;;27.13;16.53;;;;;;;-4.79;76.25;99504.58;3227025;90;25933;-73
2021/01/31 16:54:52;;;;;;;28.07;17.97;;;;;;;-4.78;75.97;99504.16;3215050;91;25789;-68
2021/01/31 16:59:54;;;;;;;28.43;18.23;;;;;;;-4.82;76.11;99505.42;3220624;90;25861;-73
2021/01/31 17:04:55;;;;;;;28.60;17.80;;;;;;;-4.86;76.39;99506.68;3214805;92;26001;-74
2021/01/31 17:09:56;;;;;;;30.63;19.13;;;;;;;-4.97;77.24;99515.28;3214978;91;25950;-68
2021/01/31 17:14:57;;;;;;;30.50;18.17;;;;;;;-5.04;77.30;99516.08;3214341;91;26578;-73
2021/01/31 17:19:58;;;;;;;32.37;19.30;;;;;;;-5.19;78.81;99520.72;3226005;90;25936;-72
2021/01/31 17:24:59;;;;;;;33.27;22.10;;;;;;;-5.20;77.97;99517.67;3232291;91;25800;-73
2021/01/31 17:30:01;;;;;;;30.60;19.93;;;;;;;-5.21;78.79;99516.33;3232748;91;25965;-72
2021/01/31 17:35:03;;;;;;;28.90;18.25;;;;;;;-5.42;79.73;99507.91;3232281;90;26362;-67
2021/01/31 17:40:07;;;;;;;30.07;18.53;;;;;;;-5.56;80.42;99511.64;3264804;89;26275;-73
2021/01/31 17:45:14;;;;;;;25.40;17.00;;;;;;;-5.47;79.69;99511.34;3230504;90;33158;-74
2021/01/31 17:50:20;;;;;;;24.60;16.63;;;;;;;-5.53;80.20;99506.05;3260421;91;33213;-72
2021/01/31 17:55:24;;;;;;;31.03;18.13;;;;;;;-5.60;81.08;99504.23;3262425;89;52273;-67
2021/01/31 18:00:29;;;;;;;26.27;16.57;;;;;;;-5.65;81.41;99503.33;3258533;90;35127;-73
2021/01/31 18:05:31;;;;;;;27.13;17.92;;;;;;;-5.75;81.97;99503.65;3256041;91;26499;-67
2021/01/31 18:10:32;;;;;;;28.37;17.17;;;;;;;-5.78;81.46;99516.61;3255667;91;35019;-74
2021/01/31 18:15:34;;;;;;;28.23;17.93;;;;;;;-5.80;81.91;99506.19;3255294;90;34239;-71
2021/01/31 18:20:35;;;;;;;27.43;17.60;;;;;;;-5.82;81.57;99503.13;3255265;90;33541;-74
2021/01/31 18:25:36;;;;;;;30.83;18.93;;;;;;;-5.95;82.46;99503.39;3264921;89;26276;-71
2021/01/31 18:30:42;;;;;;;26.37;15.50;;;;;;;-6.02;82.69;99498.61;3231910;91;25791;-74
2021/01/31 18:35:43;;;;;;;29.60;18.57;;;;;;;-6.05;82.61;99497.25;3269386;89;35007;-72
2021/01/31 18:40:46;;;;;;;26.37;17.57;;;;;;;-6.06;83.66;99498.55;3257036;90;26388;-71
2021/01/31 18:45:47;;;;;;;24.67;16.10;;;;;;;-6.06;83.01;99491.61;3268559;89;29219;-72
2021/01/31 18:50:48;;;;;;;28.30;17.53;;;;;;;-6.22;83.57;99487.10;3256231;90;26348;-72
2021/01/31 18:55:49;;;;;;;27.33;16.50;;;;;;;-6.21;83.84;99490.14;3255120;87;28641;-71
2021/01/31 19:00:50;;;;;;;28.77;18.25;;;;;;;-6.29;84.23;99481.83;3313948;87;25751;-73
2021/01/31 19:05:51;;;;;;;31.47;19.83;;;;;;;-6.22;84.01;99482.77;3311455;88;26013;-73
2021/01/31 19:10:52;;;;;;;30.10;18.03;;;;;;;-6.31;83.92;99477.48;3310325;88;25875;-69
2021/01/31 19:15:54;;;;;;;28.57;19.47;;;;;;;-6.42;85.45;99486.41;3242716;90;25892;-75
2021/01/31 19:20:55;;;;;;;36.97;21.80;;;;;;;-6.42;85.33;99487.70;3282882;89;26422;-73
2021/01/31 19:25:56;;;;;;;31.10;20.30;;;;;;;-6.45;85.01;99487.64;3283524;90;25933;-69
2021/01/31 19:31:00;;;;;;;28.33;18.70;;;;;;;-6.46;85.13;99492.38;3324802;88;25841;-73
2021/01/31 19:36:01;;;;;;;27.13;17.87;;;;;;;-6.51;84.90;99478.05;3282367;90;31146;-70
2021/01/31 19:41:04;;;;;;;29.03;17.83;;;;;;;-6.53;84.95;99477.58;3280403;90;25974;-74
2021/01/31 19:46:07;;;;;;;32.77;18.93;;;;;;;-6.59;86.00;99481.84;3322526;88;32592;-73
2021/01/31 19:51:09;;;;;;;29.10;19.13;;;;;;;-6.59;85.32;99484.43;3325188;88;35308;-68
2021/01/31 19:56:13;;;;;;;29.20;18.83;;;;;;;-6.60;84.94;99480.09;3297854;89;34967;-69
2021/01/31 20:01:15;;;;;;;30.52;19.57;;;;;;;-6.63;85.33;99472.69;3283609;90;26569;-69
2021/01/31 20:06:16;;;;;;;30.37;18.60;;;;;;;-6.66;86.92;99468.78;3279148;88;26292;-75
2021/01/31 20:11:22;;;;;;;30.13;19.30;;;;;;;-6.70;86.81;99470.45;3282030;90;26352;-73
2021/01/31 20:16:23;;;;;;;34.73;20.77;;;;;;;-6.73;86.23;99472.55;3282528;90;33111;-69
2021/01/31 20:21:24;;;;;;;29.93;18.87;;;;;;;-6.82;87.34;99480.61;3266004;89;25818;-73
2021/01/31 20:26:26;;;;;;;32.70;20.17;;;;;;;-6.81;86.74;99486.25;3260470;89;34666;-74
2021/01/31 20:31:27;;;;;;;34.13;20.57;;;;;;;-6.83;87.02;99484.05;3260178;90;25856;-73
2021/01/31 20:36:28;;;;;;;33.70;21.10;;;;;;;-6.87;87.13;99480.97;3273348;85;28597;-76
2021/01/31 20:41:30;;;;;;;41.70;23.23;;;;;;;-6.94;87.99;99478.28;3271100;90;25817;-76
2021/01/31 20:46:31;;;;;;;47.03;25.60;;;;;;;-7.05;88.19;99474.22;3268328;90;25758;-76
2021/01/31 20:51:34;;;;;;;46.13;26.27;;;;;;;-7.11;88.92;99482.30;3239983;90;25782;-74
2021/01/31 20:56:36;;;;;;;52.23;28.93;;;;;;;-7.14;88.71;99471.91;3262212;91;35143;-73
2021/01/31 21:01:37;;;;;;;39.70;25.40;;;;;;;-7.18;88.44;99479.16;3263003;90;26127;-58
2021/01/31 21:06:39;;;;;;;37.57;22.60;;;;;;;-7.28;89.62;99482.02;3262975;90;25855;-72
2021/01/31 21:11:41;;;;;;;40.93;22.10;;;;;;;-7.40;90.17;99487.88;3262228;91;30231;-71
2021/01/31 21:16:42;;;;;;;41.67;23.37;;;;;;;-7.46;90.79;99483.86;3266522;86;33157;-72
2021/01/31 21:21:46;;;;;;;43.63;25.57;;;;;;;-7.48;90.63;99481.68;3365425;87;25840;-71
2021/01/31 21:26:47;;;;;;;41.40;24.80;;;;;;;-7.50;89.83;99495.02;3379671;87;35014;-75
2021/01/31 21:31:48;;;;;;;42.27;24.40;;;;;;;-7.59;91.29;99495.28;3379404;87;25793;-75
2021/01/31 21:36:49;;;;;;;46.43;26.73;;;;;;;-7.61;91.12;99493.52;3379526;87;25793;-74
2021/01/31 21:41:51;;;;;;;40.10;23.37;;;;;;;-7.57;92.23;99494.02;3380098;87;25885;-74
2021/01/31 21:46:53;;;;;;;39.30;23.20;;;;;;;-7.55;91.74;99494.52;3380247;87;35461;-73
2021/01/31 21:51:54;;;;;;;41.63;23.63;;;;;;;-7.51;91.12;99485.09;3379598;87;26290;-73
2021/01/31 21:56:55;;;;;;;42.03;23.10;;;;;;;-7.60;91.40;99496.13;3379904;87;25798;-73
2021/01/31 22:01:56;;;;;;;38.47;22.93;;;;;;;-7.68;91.86;99486.05;3379745;87;25822;-73
2021/01/31 22:07:02;;;;;;;47.58;26.07;;;;;;;-7.73;92.01;99491.56;3379946;87;25775;-74
2021/01/31 22:12:14;;;;;;;47.90;26.73;;;;;;;-7.83;92.67;99493.09;3380238;87;33943;-72
2021/01/31 22:17:15;;;;;;;41.47;23.43;;;;;;;-7.92;92.96;99489.02;3379634;87;34926;-73
2021/01/31 22:22:16;;;;;;;41.67;24.93;;;;;;;-7.91;93.16;99494.25;3379803;87;25701;-71
2021/01/31 22:27:18;;;;;;;55.33;28.07;;;;;;;-7.94;92.85;99495.91;3379879;87;26255;-72
2021/01/31 22:32:24;;;;;;;55.53;29.40;;;;;;;-8.03;92.42;99495.27;3380169;87;25829;-72
2021/01/31 22:37:24;;;;;;;44.33;26.67;;;;;;;-8.11;92.56;99495.56;3379740;87;33000;-73
2021/01/31 22:42:25;;;;;;;46.40;25.63;;;;;;;-8.16;93.24;99489.85;3379604;87;26297;-72
2021/01/31 22:47:27;;;;;;;45.07;25.10;;;;;;;-8.18;93.29;99496.73;3379908;87;25806;-72
2021/01/31 22:52:28;;;;;;;46.27;23.57;;;;;;;-8.19;93.89;99487.22;3380003;87;25862;-73
2021/01/31 22:57:32;;;;;;;44.25;26.17;;;;;;;-8.19;93.67;99487.22;3379873;87;25826;-73
2021/01/31 23:02:37;;;;;;;44.13;25.80;;;;;;;-8.17;93.61;99495.00;3380148;87;33063;-73
2021/01/31 23:07:40;;;;;;;36.68;20.30;;;;;;;-8.20;94.24;99491.94;3380292;87;25890;-72
2021/01/31 23:12:41;;;;;;;52.87;26.67;;;;;;;-8.34;94.28;99500.67;3380477;87;35009;-74
2021/01/31 23:17:42;;;;;;;57.33;27.03;;;;;;;-8.34;95.59;99500.67;3380014;87;25948;-72
2021/01/31 23:22:44;;;;;;;59.20;29.50;;;;;;;-8.40;95.01;99506.15;3380047;87;25817;-68
2021/01/31 23:27:45;;;;;;;66.90;31.80;;;;;;;-8.54;95.57;99505.45;3380404;87;25891;-73
2021/01/31 23:32:47;;;;;;;54.77;29.03;;;;;;;-8.57;95.54;99506.66;3380466;87;25941;-71